OWSO2: Bird Creek At Owasso

Data processed at Wed May 22 2019 23:50


All information presented herein is the property of the government of the United States of America and may be revised or deleted at any time without prior notice.
Dissemination of this information without the expressed written consent of the Public Affairs Office, Tulsa District U.S. Army Corps of Engineers is strictly prohibited.
These data are gathered electronically and, as presented, have not undergone any form of quality control. These data are not guaranteed to be valid or correct.
Go to home page.
Go to station list.
Go to home page.

Upstream stations:

Downstream station:
Previous Day
Next Day
Current Day
    
SHEF ID:       OWSO2     Bird Creek near Owasso, OK
STATION TYPE:  
Regulating: Stage =    18.00, Flow =    15566

                STAGE  STAGE(2)  RIV-FLOW  BAT-LOAD
                   ft        ft       cfs      volt
              Ccp-Rev   Ccp-Rev   Ccp-Rev   Ccp-Rev
(US/Central)
05/22 00:00     25.05     25.23     25220     12.41
05/22 01:00     25.29     25.40     25691     12.41
05/22 02:00     25.50     25.62     26105     12.41
05/22 03:00     25.71     25.86     26521     12.41
05/22 04:00     25.98     26.13     27060     12.41
05/22 05:00     26.36     26.35     28023     12.33
05/22 06:00     26.61     26.63     28672     12.33
05/22 07:00     26.87     26.89     29355     12.33
05/22 08:00     27.05     27.13     29835     12.41
05/22 09:00     27.33     27.35     30597     12.81
05/22 10:00     27.64     27.61     31452     13.05
05/22 11:00     27.88     27.85     32122     13.37
05/22 12:00     28.09     28.06     32715     13.29
05/22 13:00     28.24     28.31     33141     13.29
05/22 14:00     28.57     28.52     34088     13.13
05/22 15:00     28.64     28.66     34291     13.05
05/22 16:00     28.85     28.80     34902     12.97
05/22 17:00     28.90     28.88     35049     12.97
05/22 18:00     29.04     29.04     35460     12.97
05/22 19:00     29.20     29.11     35933     12.81
05/22 20:00     29.18     29.20     35874     12.65
05/22 21:00     29.33     29.28     36320     12.49
05/22 22:00     29.34     29.29     36350     12.49
05/22 23:00     29.42     29.31     36589     12.41